Погода METAR - Новосибирск (Толмачево)

Кемерово, Абакан, Красноярск, Новосибирск
Код METAR: UNNT 270830Z 20003MPS CAVOK M25/M30 Q1056 R25/810160 R16/////// NOSIG RMK QFE782/1042

Погода - Сейчас

Время: 2022-11-27 15:30, местное
Направление ветра: Юг-юго-запад (200°)
Скорость ветра: 3 м/с
Видимость: более 10км, отсутствие осадков и облаков
Температура: -25°C
Точка росы: -30°C
Атмосферное давление: 1056 гПа

Архив погоды

Время, местное Направление Скорость, м/с Температура, °C Точка росы, °C Давление, гПа
2022-11-27 15:30 ЮЮЗ (200°) 3 -25 -30 1056
2022-11-27 12:30 ЗЮЗ (260°) 3 -27 -32 1056
2022-11-25 12:30 С (360°) 2 -20 -23 1018
2022-11-25 01:30 Ю (170°) 2 -21 -24 1026
2022-11-24 21:00 ЮЮВ (160°) 3 -20 -23 1029
2022-11-24 12:30 Ю (190°) 3 -21 -25 1034
2022-11-22 16:30 ЗЮЗ (240°) 7 -7 -12 1006
2022-11-24 03:00 ЮЗ (230°) 4 -25 -28 1034
2022-11-23 13:30 ЗСЗ (290°) 7 -20 -26 1022
2022-11-22 23:00 З (270°) 5 -11 -14 1009
2022-11-17 06:00 Ю (190°) 4 -5 -7 1010
2022-11-16 13:00 ЮЗ (220°) 10, порывы до 15 1 -4 1002
2022-11-16 03:00 ЮЗ (220°) 8 1 -1 994
2022-11-15 18:00 ЮЗ (220°) 7 4 1 993
2022-11-15 02:00 Ю (190°) 6 3 1 995
2022-11-14 13:30 Ю (180°) 5 0 -4 1004
2022-11-11 02:30 Ю (190°) 5 -2 -3 1024
2022-11-11 00:30 ЮЮЗ (200°) 5 -2 -3 1025
2022-11-10 03:30 ЮЮЗ (200°) 5 -2 -4 1028
2022-11-10 02:00 ЮЗ (210°) 4 -2 -5 1028
2022-11-09 08:30 ЗЮЗ (240°) 3 -3 -6 1024
2022-11-05 20:30 ЮЮЗ (200°) 4 0 -4 1019
2022-11-04 13:30 ЮВ (140°) 3 4 -1 1025
2022-11-03 15:30 ЮЗ (220°) 4 5 4 1022
2022-11-03 03:00 ЮВ (120°) 2 -2 -3 1020
2022-11-01 09:30 ЮВ (140°) 2 -2 -3 1026
2022-10-30 11:30 ЮЮВ (150°) 5 0 -5 1030
2022-10-30 03:30 ЮЮВ (150°) 1 -2 -5 1032
2022-10-25 19:00 Ю (180°) 3 2 -5 1022
2022-10-27 17:00 ЮЗ (220°) 6 5 0 1012
2022-10-27 11:30 ЮЮВ (150°) 4 5 5 1011
2022-10-26 03:00 Ю (170°) 3 -2 -6 1020
2022-10-24 14:00 ЮЗ (230°) 8 1 -3 1028
2022-10-24 12:30 ЗЮЗ (250°) 8 2 -2 1028
2022-10-23 11:30 ЗЮЗ (240°) 16, порывы до 21 6 2 996
2022-10-22 05:00 Ю (180°) 5 9 4 1013
2022-10-21 23:30 Ю (180°) 4 8 6 1015
2022-10-21 05:00 ЗЮЗ (250°) 4 4 3 1014
2022-10-19 07:00 ЮЗ (230°) 4 3 1 1018
2022-10-18 01:30 ЗЮЗ (250°) 4 6 5 1016
2022-10-15 17:30 В (100°) 2 11 -3 1025
2022-10-14 02:30 С (350°) 1 -4 -4 1032
2022-10-13 10:00 Переменный 1 1 0 1029
2022-10-12 07:30 ЗЮЗ (240°) 3 6 4 1019
2022-10-11 19:30 ЗЮЗ (240°) 5 12 4 1019
2022-10-10 21:00 ЮЗ (230°) 5 7 1 1025
2022-10-09 08:00 ВЮВ (110°) 2 8 0 1009
2022-10-08 23:00 ЮЮВ (150°) 4 9 3 1013